sensor_id;sensor_type;location;lat;lon;timestamp;temperature;humidity
71155;DHT22;59375;53.216;5.728;2023-04-24T00:00:22;10.90;99.90
71155;DHT22;59375;53.216;5.728;2023-04-24T00:02:48;10.90;99.90
71155;DHT22;59375;53.216;5.728;2023-04-24T00:05:14;10.90;99.90
71155;DHT22;59375;53.216;5.728;2023-04-24T00:07:43;10.90;99.90
71155;DHT22;59375;53.216;5.728;2023-04-24T00:10:09;10.90;99.90
71155;DHT22;59375;53.216;5.728;2023-04-24T00:12:34;10.90;99.90
71155;DHT22;59375;53.216;5.728;2023-04-24T00:15:00;10.90;99.90
71155;DHT22;59375;53.216;5.728;2023-04-24T00:17:25;10.90;99.90
71155;DHT22;59375;53.216;5.728;2023-04-24T00:19:51;10.90;99.90
71155;DHT22;59375;53.216;5.728;2023-04-24T00:22:17;10.90;99.90
71155;DHT22;59375;53.216;5.728;2023-04-24T00:24:42;10.90;99.90
71155;DHT22;59375;53.216;5.728;2023-04-24T00:27:08;10.90;99.90
71155;DHT22;59375;53.216;5.728;2023-04-24T00:29:33;10.90;99.90
71155;DHT22;59375;53.216;5.728;2023-04-24T00:31:59;10.80;99.90
71155;DHT22;59375;53.216;5.728;2023-04-24T00:34:24;10.80;99.90
71155;DHT22;59375;53.216;5.728;2023-04-24T00:39:43;10.90;99.90
71155;DHT22;59375;53.216;5.728;2023-04-24T00:42:09;11.00;99.90
71155;DHT22;59375;53.216;5.728;2023-04-24T00:44:34;11.10;99.90
71155;DHT22;59375;53.216;5.728;2023-04-24T00:47:00;11.10;99.90
71155;DHT22;59375;53.216;5.728;2023-04-24T00:49:26;11.10;99.90
71155;DHT22;59375;53.216;5.728;2023-04-24T00:51:52;11.10;99.90
71155;DHT22;59375;53.216;5.728;2023-04-24T00:54:19;11.20;99.90
71155;DHT22;59375;53.216;5.728;2023-04-24T00:56:45;11.20;99.90
71155;DHT22;59375;53.216;5.728;2023-04-24T00:59:11;11.30;99.90
71155;DHT22;59375;53.216;5.728;2023-04-24T01:01:37;11.30;99.90
71155;DHT22;59375;53.216;5.728;2023-04-24T01:04:07;11.30;99.90
71155;DHT22;59375;53.216;5.728;2023-04-24T01:06:32;11.30;99.90
71155;DHT22;59375;53.216;5.728;2023-04-24T01:08:59;11.30;99.90
71155;DHT22;59375;53.216;5.728;2023-04-24T01:11:25;11.30;99.90
71155;DHT22;59375;53.216;5.728;2023-04-24T01:13:51;11.40;99.90
71155;DHT22;59375;53.216;5.728;2023-04-24T01:16:16;11.40;99.90
71155;DHT22;59375;53.216;5.728;2023-04-24T01:18:43;11.40;99.90
71155;DHT22;59375;53.216;5.728;2023-04-24T01:21:09;11.50;99.90
71155;DHT22;59375;53.216;5.728;2023-04-24T01:23:36;11.50;99.90
71155;DHT22;59375;53.216;5.728;2023-04-24T01:26:01;11.40;99.90
71155;DHT22;59375;53.216;5.728;2023-04-24T01:28:27;11.40;99.90
71155;DHT22;59375;53.216;5.728;2023-04-24T01:30:52;11.40;99.90
71155;DHT22;59375;53.216;5.728;2023-04-24T01:33:19;11.40;99.90
71155;DHT22;59375;53.216;5.728;2023-04-24T01:35:45;11.40;99.90
71155;DHT22;59375;53.216;5.728;2023-04-24T01:38:11;11.40;99.90
71155;DHT22;59375;53.216;5.728;2023-04-24T01:40:36;11.40;99.90
71155;DHT22;59375;53.216;5.728;2023-04-24T01:43:02;11.40;99.90
71155;DHT22;59375;53.216;5.728;2023-04-24T01:45:28;11.40;99.90
71155;DHT22;59375;53.216;5.728;2023-04-24T01:47:53;11.40;99.90
71155;DHT22;59375;53.216;5.728;2023-04-24T01:50:19;11.40;99.90
71155;DHT22;59375;53.216;5.728;2023-04-24T01:52:44;11.50;99.90
71155;DHT22;59375;53.216;5.728;2023-04-24T01:55:10;11.40;99.90
71155;DHT22;59375;53.216;5.728;2023-04-24T01:57:35;11.40;99.90
71155;DHT22;59375;53.216;5.728;2023-04-24T02:00:01;11.30;99.90
71155;DHT22;59375;53.216;5.728;2023-04-24T02:02:29;11.30;99.90
71155;DHT22;59375;53.216;5.728;2023-04-24T02:04:55;11.20;99.90
71155;DHT22;59375;53.216;5.728;2023-04-24T02:07:20;11.10;99.90
71155;DHT22;59375;53.216;5.728;2023-04-24T02:09:46;11.00;99.90
71155;DHT22;59375;53.216;5.728;2023-04-24T02:12:11;10.90;99.90
71155;DHT22;59375;53.216;5.728;2023-04-24T02:14:37;10.80;99.90
71155;DHT22;59375;53.216;5.728;2023-04-24T02:17:02;10.70;99.90
71155;DHT22;59375;53.216;5.728;2023-04-24T02:19:28;10.70;99.90
71155;DHT22;59375;53.216;5.728;2023-04-24T02:21:53;10.70;99.90
71155;DHT22;59375;53.216;5.728;2023-04-24T02:24:19;10.60;99.90
71155;DHT22;59375;53.216;5.728;2023-04-24T02:26:44;10.70;99.90
71155;DHT22;59375;53.216;5.728;2023-04-24T02:29:09;10.60;99.90
71155;DHT22;59375;53.216;5.728;2023-04-24T02:31:35;10.60;99.90
71155;DHT22;59375;53.216;5.728;2023-04-24T02:34:01;10.60;99.90
71155;DHT22;59375;53.216;5.728;2023-04-24T02:36:26;10.60;99.90
71155;DHT22;59375;53.216;5.728;2023-04-24T02:38:52;10.50;99.90
71155;DHT22;59375;53.216;5.728;2023-04-24T02:41:17;10.50;99.90
71155;DHT22;59375;53.216;5.728;2023-04-24T02:43:43;10.50;99.90
71155;DHT22;59375;53.216;5.728;2023-04-24T02:46:08;10.50;99.90
71155;DHT22;59375;53.216;5.728;2023-04-24T02:48:33;10.50;99.90
71155;DHT22;59375;53.216;5.728;2023-04-24T02:50:59;10.50;99.90
71155;DHT22;59375;53.216;5.728;2023-04-24T02:53:25;10.50;99.90
71155;DHT22;59375;53.216;5.728;2023-04-24T02:55:50;10.40;99.90
71155;DHT22;59375;53.216;5.728;2023-04-24T02:58:16;10.50;99.90
71155;DHT22;59375;53.216;5.728;2023-04-24T03:00:42;10.40;99.90
71155;DHT22;59375;53.216;5.728;2023-04-24T03:03:08;10.50;99.90
71155;DHT22;59375;53.216;5.728;2023-04-24T03:05:34;10.40;99.90
71155;DHT22;59375;53.216;5.728;2023-04-24T03:07:59;10.40;99.90
71155;DHT22;59375;53.216;5.728;2023-04-24T03:10:25;10.40;99.90
71155;DHT22;59375;53.216;5.728;2023-04-24T03:12:50;10.40;99.90
71155;DHT22;59375;53.216;5.728;2023-04-24T03:15:16;10.40;99.90
71155;DHT22;59375;53.216;5.728;2023-04-24T03:17:41;10.40;99.90
71155;DHT22;59375;53.216;5.728;2023-04-24T03:20:07;10.40;99.90
71155;DHT22;59375;53.216;5.728;2023-04-24T03:22:33;10.40;99.90
71155;DHT22;59375;53.216;5.728;2023-04-24T03:24:59;10.40;99.90
71155;DHT22;59375;53.216;5.728;2023-04-24T03:27:25;10.40;99.90
71155;DHT22;59375;53.216;5.728;2023-04-24T03:29:50;10.40;99.90
71155;DHT22;59375;53.216;5.728;2023-04-24T03:32:20;10.40;99.90
71155;DHT22;59375;53.216;5.728;2023-04-24T03:34:45;10.30;99.90
71155;DHT22;59375;53.216;5.728;2023-04-24T03:37:11;10.30;99.90
71155;DHT22;59375;53.216;5.728;2023-04-24T03:39:36;10.30;99.90
71155;DHT22;59375;53.216;5.728;2023-04-24T03:42:02;10.30;99.90
71155;DHT22;59375;53.216;5.728;2023-04-24T03:44:28;10.20;99.90
71155;DHT22;59375;53.216;5.728;2023-04-24T03:46:53;10.20;99.90
71155;DHT22;59375;53.216;5.728;2023-04-24T03:49:19;10.20;99.90
71155;DHT22;59375;53.216;5.728;2023-04-24T03:51:44;10.20;99.90
71155;DHT22;59375;53.216;5.728;2023-04-24T03:54:10;10.20;99.90
71155;DHT22;59375;53.216;5.728;2023-04-24T03:56:35;10.20;99.90
71155;DHT22;59375;53.216;5.728;2023-04-24T03:59:01;10.20;99.90
71155;DHT22;59375;53.216;5.728;2023-04-24T04:01:27;10.20;99.90
71155;DHT22;59375;53.216;5.728;2023-04-24T04:03:53;10.20;99.90
71155;DHT22;59375;53.216;5.728;2023-04-24T04:06:19;10.20;99.90
71155;DHT22;59375;53.216;5.728;2023-04-24T04:08:44;10.10;99.90
71155;DHT22;59375;53.216;5.728;2023-04-24T04:11:10;10.10;99.90
71155;DHT22;59375;53.216;5.728;2023-04-24T04:13:35;10.10;99.90
71155;DHT22;59375;53.216;5.728;2023-04-24T04:16:01;10.10;99.90
71155;DHT22;59375;53.216;5.728;2023-04-24T04:18:26;10.00;99.90
71155;DHT22;59375;53.216;5.728;2023-04-24T04:20:52;10.00;99.90
71155;DHT22;59375;53.216;5.728;2023-04-24T04:23:17;9.90;99.90
71155;DHT22;59375;53.216;5.728;2023-04-24T04:25:43;10.00;99.90
71155;DHT22;59375;53.216;5.728;2023-04-24T04:28:08;9.90;99.90
71155;DHT22;59375;53.216;5.728;2023-04-24T04:30:34;9.90;99.90
71155;DHT22;59375;53.216;5.728;2023-04-24T04:32:59;9.90;99.90
71155;DHT22;59375;53.216;5.728;2023-04-24T04:35:24;9.90;99.90
71155;DHT22;59375;53.216;5.728;2023-04-24T04:37:50;9.90;99.90
71155;DHT22;59375;53.216;5.728;2023-04-24T04:40:16;9.90;99.90
71155;DHT22;59375;53.216;5.728;2023-04-24T04:42:42;9.90;99.90
71155;DHT22;59375;53.216;5.728;2023-04-24T04:45:11;9.90;99.90
71155;DHT22;59375;53.216;5.728;2023-04-24T04:47:36;9.90;99.90
71155;DHT22;59375;53.216;5.728;2023-04-24T04:50:02;9.90;99.90
71155;DHT22;59375;53.216;5.728;2023-04-24T04:52:29;9.90;99.90
71155;DHT22;59375;53.216;5.728;2023-04-24T04:54:55;9.90;99.90
71155;DHT22;59375;53.216;5.728;2023-04-24T04:57:20;9.90;99.90
71155;DHT22;59375;53.216;5.728;2023-04-24T04:59:46;9.90;99.90
71155;DHT22;59375;53.216;5.728;2023-04-24T05:02:12;9.90;99.90
71155;DHT22;59375;53.216;5.728;2023-04-24T05:04:37;9.90;99.90
71155;DHT22;59375;53.216;5.728;2023-04-24T05:07:03;9.90;99.90
71155;DHT22;59375;53.216;5.728;2023-04-24T05:09:28;9.90;99.90
71155;DHT22;59375;53.216;5.728;2023-04-24T05:11:54;9.90;99.90
71155;DHT22;59375;53.216;5.728;2023-04-24T05:14:20;9.90;99.90
71155;DHT22;59375;53.216;5.728;2023-04-24T05:16:46;9.90;99.90
71155;DHT22;59375;53.216;5.728;2023-04-24T05:19:11;9.90;99.90
71155;DHT22;59375;53.216;5.728;2023-04-24T05:21:39;9.90;99.90
71155;DHT22;59375;53.216;5.728;2023-04-24T05:24:04;9.90;99.90
71155;DHT22;59375;53.216;5.728;2023-04-24T05:26:31;9.80;99.90
71155;DHT22;59375;53.216;5.728;2023-04-24T05:28:56;9.90;99.90
71155;DHT22;59375;53.216;5.728;2023-04-24T05:31:22;9.90;99.90
71155;DHT22;59375;53.216;5.728;2023-04-24T05:33:47;9.80;99.90
71155;DHT22;59375;53.216;5.728;2023-04-24T05:36:13;9.80;99.90
71155;DHT22;59375;53.216;5.728;2023-04-24T05:38:38;9.80;99.90
71155;DHT22;59375;53.216;5.728;2023-04-24T05:41:04;9.80;99.90
71155;DHT22;59375;53.216;5.728;2023-04-24T05:43:29;9.80;99.90
71155;DHT22;59375;53.216;5.728;2023-04-24T05:45:55;9.80;99.90
71155;DHT22;59375;53.216;5.728;2023-04-24T05:48:20;9.80;99.90
71155;DHT22;59375;53.216;5.728;2023-04-24T05:50:47;9.70;99.90
71155;DHT22;59375;53.216;5.728;2023-04-24T05:53:13;9.70;99.90
71155;DHT22;59375;53.216;5.728;2023-04-24T05:55:38;9.70;99.90
71155;DHT22;59375;53.216;5.728;2023-04-24T05:58:04;9.70;99.90
71155;DHT22;59375;53.216;5.728;2023-04-24T06:00:30;9.60;99.90
71155;DHT22;59375;53.216;5.728;2023-04-24T06:02:55;9.60;99.90
71155;DHT22;59375;53.216;5.728;2023-04-24T06:05:21;9.60;99.90
71155;DHT22;59375;53.216;5.728;2023-04-24T06:07:47;9.60;99.90
71155;DHT22;59375;53.216;5.728;2023-04-24T06:10:13;9.60;99.90
71155;DHT22;59375;53.216;5.728;2023-04-24T06:12:39;9.60;99.90
71155;DHT22;59375;53.216;5.728;2023-04-24T06:15:05;9.60;99.90
71155;DHT22;59375;53.216;5.728;2023-04-24T06:17:30;9.60;99.90
71155;DHT22;59375;53.216;5.728;2023-04-24T06:19:56;9.60;99.90
71155;DHT22;59375;53.216;5.728;2023-04-24T06:22:21;9.60;99.90
71155;DHT22;59375;53.216;5.728;2023-04-24T06:24:47;9.60;99.90
71155;DHT22;59375;53.216;5.728;2023-04-24T06:27:13;9.50;99.90
71155;DHT22;59375;53.216;5.728;2023-04-24T06:29:39;9.50;99.90
71155;DHT22;59375;53.216;5.728;2023-04-24T06:32:04;9.50;99.90
71155;DHT22;59375;53.216;5.728;2023-04-24T06:34:30;9.40;99.90
71155;DHT22;59375;53.216;5.728;2023-04-24T06:36:56;9.40;99.90
71155;DHT22;59375;53.216;5.728;2023-04-24T06:39:21;9.40;99.90
71155;DHT22;59375;53.216;5.728;2023-04-24T06:41:47;9.40;99.90
71155;DHT22;59375;53.216;5.728;2023-04-24T06:44:12;9.30;99.90
71155;DHT22;59375;53.216;5.728;2023-04-24T06:46:40;9.30;99.90
71155;DHT22;59375;53.216;5.728;2023-04-24T06:49:06;9.30;99.90
71155;DHT22;59375;53.216;5.728;2023-04-24T06:51:31;9.30;99.90
71155;DHT22;59375;53.216;5.728;2023-04-24T06:53:58;9.30;99.90
71155;DHT22;59375;53.216;5.728;2023-04-24T06:56:24;9.30;99.90
71155;DHT22;59375;53.216;5.728;2023-04-24T06:58:50;9.30;99.90
71155;DHT22;59375;53.216;5.728;2023-04-24T07:01:16;9.30;99.90
71155;DHT22;59375;53.216;5.728;2023-04-24T07:03:41;9.30;99.90
71155;DHT22;59375;53.216;5.728;2023-04-24T07:06:07;9.30;99.90
71155;DHT22;59375;53.216;5.728;2023-04-24T07:08:32;9.30;99.90
71155;DHT22;59375;53.216;5.728;2023-04-24T07:10:58;9.30;99.90
71155;DHT22;59375;53.216;5.728;2023-04-24T07:13:23;9.30;99.90
71155;DHT22;59375;53.216;5.728;2023-04-24T07:15:49;9.30;99.90
71155;DHT22;59375;53.216;5.728;2023-04-24T07:18:19;9.20;99.90
71155;DHT22;59375;53.216;5.728;2023-04-24T07:20:45;9.20;99.90
71155;DHT22;59375;53.216;5.728;2023-04-24T07:23:10;9.20;99.90
71155;DHT22;59375;53.216;5.728;2023-04-24T07:25:36;9.20;99.90
71155;DHT22;59375;53.216;5.728;2023-04-24T07:28:01;9.20;99.90
71155;DHT22;59375;53.216;5.728;2023-04-24T07:30:27;9.20;99.90
71155;DHT22;59375;53.216;5.728;2023-04-24T07:32:54;9.20;99.90
71155;DHT22;59375;53.216;5.728;2023-04-24T07:35:20;9.20;99.90
71155;DHT22;59375;53.216;5.728;2023-04-24T07:37:46;9.20;99.90
71155;DHT22;59375;53.216;5.728;2023-04-24T07:40:14;9.30;99.90
71155;DHT22;59375;53.216;5.728;2023-04-24T07:42:40;9.30;99.90
71155;DHT22;59375;53.216;5.728;2023-04-24T07:45:06;9.30;99.90
71155;DHT22;59375;53.216;5.728;2023-04-24T07:47:32;9.30;99.90
71155;DHT22;59375;53.216;5.728;2023-04-24T07:49:58;9.40;99.90
71155;DHT22;59375;53.216;5.728;2023-04-24T07:52:24;9.40;99.90
71155;DHT22;59375;53.216;5.728;2023-04-24T07:54:49;9.40;99.90
71155;DHT22;59375;53.216;5.728;2023-04-24T07:57:15;9.50;99.90
71155;DHT22;59375;53.216;5.728;2023-04-24T07:59:41;9.50;99.90
71155;DHT22;59375;53.216;5.728;2023-04-24T08:02:06;9.50;99.90
71155;DHT22;59375;53.216;5.728;2023-04-24T08:04:32;9.60;99.90
71155;DHT22;59375;53.216;5.728;2023-04-24T08:06:57;9.70;99.90
71155;DHT22;59375;53.216;5.728;2023-04-24T08:09:23;9.70;99.90
71155;DHT22;59375;53.216;5.728;2023-04-24T08:11:48;9.70;99.90
71155;DHT22;59375;53.216;5.728;2023-04-24T08:14:14;9.70;99.90
71155;DHT22;59375;53.216;5.728;2023-04-24T08:16:40;9.60;99.90
71155;DHT22;59375;53.216;5.728;2023-04-24T08:19:05;9.60;99.90
71155;DHT22;59375;53.216;5.728;2023-04-24T08:21:31;9.60;99.90
71155;DHT22;59375;53.216;5.728;2023-04-24T08:23:57;9.60;99.90
71155;DHT22;59375;53.216;5.728;2023-04-24T08:26:22;9.70;99.90
71155;DHT22;59375;53.216;5.728;2023-04-24T08:28:47;9.80;99.90
71155;DHT22;59375;53.216;5.728;2023-04-24T08:31:13;9.80;99.90
71155;DHT22;59375;53.216;5.728;2023-04-24T08:33:38;9.90;99.90
71155;DHT22;59375;53.216;5.728;2023-04-24T08:36:06;9.90;99.90
71155;DHT22;59375;53.216;5.728;2023-04-24T08:38:32;10.00;99.90
71155;DHT22;59375;53.216;5.728;2023-04-24T08:40:58;10.00;99.90
71155;DHT22;59375;53.216;5.728;2023-04-24T08:43:24;10.10;99.90
71155;DHT22;59375;53.216;5.728;2023-04-24T08:45:51;10.20;99.90
71155;DHT22;59375;53.216;5.728;2023-04-24T08:48:16;10.30;99.90
71155;DHT22;59375;53.216;5.728;2023-04-24T08:50:42;10.40;99.90
71155;DHT22;59375;53.216;5.728;2023-04-24T08:53:08;10.60;99.90
71155;DHT22;59375;53.216;5.728;2023-04-24T08:55:34;10.70;99.90
71155;DHT22;59375;53.216;5.728;2023-04-24T08:57:59;10.80;99.90
71155;DHT22;59375;53.216;5.728;2023-04-24T09:00:26;11.00;99.90
71155;DHT22;59375;53.216;5.728;2023-04-24T09:02:53;11.20;99.90
71155;DHT22;59375;53.216;5.728;2023-04-24T09:05:18;11.40;99.90
71155;DHT22;59375;53.216;5.728;2023-04-24T09:07:47;11.50;99.90
71155;DHT22;59375;53.216;5.728;2023-04-24T09:10:15;11.50;99.90
71155;DHT22;59375;53.216;5.728;2023-04-24T09:12:41;11.50;99.90
71155;DHT22;59375;53.216;5.728;2023-04-24T09:15:07;11.50;99.90
71155;DHT22;59375;53.216;5.728;2023-04-24T09:17:33;11.50;99.90
71155;DHT22;59375;53.216;5.728;2023-04-24T09:19:59;11.50;99.90
71155;DHT22;59375;53.216;5.728;2023-04-24T09:22:25;11.40;99.90
71155;DHT22;59375;53.216;5.728;2023-04-24T09:24:59;11.30;99.90
71155;DHT22;59375;53.216;5.728;2023-04-24T09:27:28;11.30;99.90
71155;DHT22;59375;53.216;5.728;2023-04-24T09:29:56;11.30;99.90
71155;DHT22;59375;53.216;5.728;2023-04-24T09:32:22;11.30;99.90
71155;DHT22;59375;53.216;5.728;2023-04-24T09:35:04;11.30;99.90
71155;DHT22;59375;53.216;5.728;2023-04-24T09:37:30;11.30;99.90
71155;DHT22;59375;53.216;5.728;2023-04-24T09:42:42;11.30;99.90
71155;DHT22;59375;53.216;5.728;2023-04-24T09:45:08;11.30;99.90
71155;DHT22;59375;53.216;5.728;2023-04-24T09:47:38;11.30;99.90
71155;DHT22;59375;53.216;5.728;2023-04-24T09:50:13;11.30;99.90
71155;DHT22;59375;53.216;5.728;2023-04-24T09:52:42;11.30;99.90
71155;DHT22;59375;53.216;5.728;2023-04-24T09:55:12;11.20;99.90
71155;DHT22;59375;53.216;5.728;2023-04-24T09:57:57;11.20;99.90
71155;DHT22;59375;53.216;5.728;2023-04-24T10:03:06;11.20;99.90
71155;DHT22;59375;53.216;5.728;2023-04-24T10:05:33;11.20;99.90
71155;DHT22;59375;53.216;5.728;2023-04-24T10:08:03;11.10;99.90
71155;DHT22;59375;53.216;5.728;2023-04-24T10:10:29;11.20;99.90
71155;DHT22;59375;53.216;5.728;2023-04-24T10:12:54;11.30;99.90
71155;DHT22;59375;53.216;5.728;2023-04-24T10:15:20;11.30;99.90
71155;DHT22;59375;53.216;5.728;2023-04-24T10:17:47;11.40;99.90
71155;DHT22;59375;53.216;5.728;2023-04-24T10:20:18;11.40;99.90
71155;DHT22;59375;53.216;5.728;2023-04-24T10:22:44;11.40;99.90
71155;DHT22;59375;53.216;5.728;2023-04-24T10:25:11;11.40;99.90
71155;DHT22;59375;53.216;5.728;2023-04-24T10:27:37;11.30;99.90
71155;DHT22;59375;53.216;5.728;2023-04-24T10:30:03;11.30;99.90
71155;DHT22;59375;53.216;5.728;2023-04-24T10:32:28;11.20;99.90
71155;DHT22;59375;53.216;5.728;2023-04-24T10:34:54;11.10;99.90
71155;DHT22;59375;53.216;5.728;2023-04-24T10:37:21;11.10;99.90
71155;DHT22;59375;53.216;5.728;2023-04-24T10:39:48;11.10;99.90
71155;DHT22;59375;53.216;5.728;2023-04-24T10:42:16;11.10;99.90
71155;DHT22;59375;53.216;5.728;2023-04-24T10:44:42;11.00;99.90
71155;DHT22;59375;53.216;5.728;2023-04-24T10:47:12;11.00;99.90
71155;DHT22;59375;53.216;5.728;2023-04-24T10:49:38;10.70;99.90
71155;DHT22;59375;53.216;5.728;2023-04-24T10:52:03;10.60;99.90
71155;DHT22;59375;53.216;5.728;2023-04-24T10:54:36;10.40;99.90
71155;DHT22;59375;53.216;5.728;2023-04-24T10:59:49;10.40;99.90
71155;DHT22;59375;53.216;5.728;2023-04-24T11:02:16;10.40;99.90
71155;DHT22;59375;53.216;5.728;2023-04-24T11:04:41;10.40;99.90
71155;DHT22;59375;53.216;5.728;2023-04-24T11:07:11;10.40;99.90
71155;DHT22;59375;53.216;5.728;2023-04-24T11:09:37;10.40;99.90
71155;DHT22;59375;53.216;5.728;2023-04-24T11:12:06;10.50;99.90
71155;DHT22;59375;53.216;5.728;2023-04-24T11:17:29;10.70;99.90
71155;DHT22;59375;53.216;5.728;2023-04-24T11:20:16;10.80;99.90
71155;DHT22;59375;53.216;5.728;2023-04-24T11:22:42;11.00;99.90
71155;DHT22;59375;53.216;5.728;2023-04-24T11:25:10;10.90;99.90
71155;DHT22;59375;53.216;5.728;2023-04-24T11:30:05;10.60;99.90
71155;DHT22;59375;53.216;5.728;2023-04-24T11:35:06;10.40;99.90
71155;DHT22;59375;53.216;5.728;2023-04-24T11:37:36;10.30;99.90
71155;DHT22;59375;53.216;5.728;2023-04-24T11:40:02;10.30;99.90
71155;DHT22;59375;53.216;5.728;2023-04-24T11:42:29;10.40;99.90
71155;DHT22;59375;53.216;5.728;2023-04-24T11:44:58;10.50;99.90
71155;DHT22;59375;53.216;5.728;2023-04-24T11:47:31;10.60;99.90
71155;DHT22;59375;53.216;5.728;2023-04-24T11:49:59;10.80;99.90
71155;DHT22;59375;53.216;5.728;2023-04-24T11:52:25;11.00;99.90
71155;DHT22;59375;53.216;5.728;2023-04-24T11:54:50;11.60;99.90
71155;DHT22;59375;53.216;5.728;2023-04-24T11:57:16;12.00;99.90
71155;DHT22;59375;53.216;5.728;2023-04-24T11:59:43;12.20;99.90
71155;DHT22;59375;53.216;5.728;2023-04-24T12:02:17;12.10;99.90
71155;DHT22;59375;53.216;5.728;2023-04-24T12:04:44;12.00;99.90
71155;DHT22;59375;53.216;5.728;2023-04-24T12:07:10;12.00;99.90
71155;DHT22;59375;53.216;5.728;2023-04-24T12:09:45;12.00;99.90
71155;DHT22;59375;53.216;5.728;2023-04-24T12:12:12;12.20;99.90
71155;DHT22;59375;53.216;5.728;2023-04-24T12:14:52;12.30;99.90
71155;DHT22;59375;53.216;5.728;2023-04-24T12:17:29;12.40;99.90
71155;DHT22;59375;53.216;5.728;2023-04-24T12:20:03;12.20;99.90
71155;DHT22;59375;53.216;5.728;2023-04-24T12:22:50;12.10;99.90
71155;DHT22;59375;53.216;5.728;2023-04-24T12:25:16;12.00;99.90
71155;DHT22;59375;53.216;5.728;2023-04-24T12:27:42;12.00;99.90
71155;DHT22;59375;53.216;5.728;2023-04-24T12:30:12;12.00;99.90
71155;DHT22;59375;53.216;5.728;2023-04-24T12:32:48;11.90;99.90
71155;DHT22;59375;53.216;5.728;2023-04-24T12:35:20;11.80;99.90
71155;DHT22;59375;53.216;5.728;2023-04-24T12:37:46;11.70;99.90
71155;DHT22;59375;53.216;5.728;2023-04-24T12:40:12;11.70;99.90
71155;DHT22;59375;53.216;5.728;2023-04-24T12:45:09;11.70;99.90
71155;DHT22;59375;53.216;5.728;2023-04-24T12:47:37;11.70;99.90
71155;DHT22;59375;53.216;5.728;2023-04-24T12:50:03;11.80;99.90
71155;DHT22;59375;53.216;5.728;2023-04-24T12:52:29;11.70;99.90
71155;DHT22;59375;53.216;5.728;2023-04-24T12:54:58;11.60;99.90
71155;DHT22;59375;53.216;5.728;2023-04-24T12:57:24;11.40;99.90
71155;DHT22;59375;53.216;5.728;2023-04-24T12:59:49;11.30;99.90
71155;DHT22;59375;53.216;5.728;2023-04-24T13:02:15;11.20;99.90
71155;DHT22;59375;53.216;5.728;2023-04-24T13:04:44;11.10;99.90
71155;DHT22;59375;53.216;5.728;2023-04-24T13:07:11;11.00;99.90
71155;DHT22;59375;53.216;5.728;2023-04-24T13:09:36;10.90;99.90
71155;DHT22;59375;53.216;5.728;2023-04-24T13:12:02;10.70;99.90
71155;DHT22;59375;53.216;5.728;2023-04-24T13:14:27;10.40;99.90
71155;DHT22;59375;53.216;5.728;2023-04-24T13:16:53;10.30;99.90
71155;DHT22;59375;53.216;5.728;2023-04-24T13:19:18;10.30;99.90
71155;DHT22;59375;53.216;5.728;2023-04-24T13:21:44;10.30;99.90
71155;DHT22;59375;53.216;5.728;2023-04-24T13:24:09;10.30;99.90
71155;DHT22;59375;53.216;5.728;2023-04-24T13:26:35;10.20;99.90
71155;DHT22;59375;53.216;5.728;2023-04-24T13:29:00;10.10;99.90
71155;DHT22;59375;53.216;5.728;2023-04-24T13:31:26;10.20;99.90
71155;DHT22;59375;53.216;5.728;2023-04-24T13:33:51;10.10;99.90
71155;DHT22;59375;53.216;5.728;2023-04-24T13:36:17;10.20;99.90
71155;DHT22;59375;53.216;5.728;2023-04-24T13:38:43;10.30;99.90
71155;DHT22;59375;53.216;5.728;2023-04-24T13:41:08;10.30;99.90
71155;DHT22;59375;53.216;5.728;2023-04-24T13:43:34;10.30;99.90
71155;DHT22;59375;53.216;5.728;2023-04-24T13:45:59;10.20;99.90
71155;DHT22;59375;53.216;5.728;2023-04-24T13:48:28;10.20;99.90
71155;DHT22;59375;53.216;5.728;2023-04-24T13:50:53;10.30;99.90
71155;DHT22;59375;53.216;5.728;2023-04-24T13:53:19;10.30;99.90
71155;DHT22;59375;53.216;5.728;2023-04-24T13:55:44;10.40;99.90
71155;DHT22;59375;53.216;5.728;2023-04-24T13:58:10;10.50;99.90
71155;DHT22;59375;53.216;5.728;2023-04-24T14:00:35;10.50;99.90
71155;DHT22;59375;53.216;5.728;2023-04-24T14:03:01;10.50;99.90
71155;DHT22;59375;53.216;5.728;2023-04-24T14:05:26;10.40;99.90
71155;DHT22;59375;53.216;5.728;2023-04-24T14:07:52;10.40;99.90
71155;DHT22;59375;53.216;5.728;2023-04-24T14:10:17;10.40;99.90
71155;DHT22;59375;53.216;5.728;2023-04-24T14:12:43;10.30;99.90
71155;DHT22;59375;53.216;5.728;2023-04-24T14:15:08;10.30;99.90
71155;DHT22;59375;53.216;5.728;2023-04-24T14:17:35;10.30;99.90
71155;DHT22;59375;53.216;5.728;2023-04-24T14:20:00;10.30;99.90
71155;DHT22;59375;53.216;5.728;2023-04-24T14:22:26;10.30;99.90
71155;DHT22;59375;53.216;5.728;2023-04-24T14:24:51;10.20;99.90
71155;DHT22;59375;53.216;5.728;2023-04-24T14:27:17;10.20;99.90
71155;DHT22;59375;53.216;5.728;2023-04-24T14:29:42;10.10;99.90
71155;DHT22;59375;53.216;5.728;2023-04-24T14:32:07;10.10;99.90
71155;DHT22;59375;53.216;5.728;2023-04-24T14:34:34;10.10;99.90
71155;DHT22;59375;53.216;5.728;2023-04-24T14:37:00;10.10;99.90
71155;DHT22;59375;53.216;5.728;2023-04-24T14:39:25;10.20;99.90
71155;DHT22;59375;53.216;5.728;2023-04-24T14:41:51;10.10;99.90
71155;DHT22;59375;53.216;5.728;2023-04-24T14:44:16;10.10;99.90
71155;DHT22;59375;53.216;5.728;2023-04-24T14:46:42;10.10;99.90
71155;DHT22;59375;53.216;5.728;2023-04-24T14:49:08;10.00;99.90
71155;DHT22;59375;53.216;5.728;2023-04-24T14:51:37;10.00;99.90
71155;DHT22;59375;53.216;5.728;2023-04-24T14:54:03;10.00;99.90
71155;DHT22;59375;53.216;5.728;2023-04-24T14:56:28;10.10;99.90
71155;DHT22;59375;53.216;5.728;2023-04-24T14:58:54;10.20;99.90
71155;DHT22;59375;53.216;5.728;2023-04-24T15:01:20;10.20;99.90
71155;DHT22;59375;53.216;5.728;2023-04-24T15:03:45;10.10;99.90
71155;DHT22;59375;53.216;5.728;2023-04-24T15:06:11;10.10;99.90
71155;DHT22;59375;53.216;5.728;2023-04-24T15:08:36;10.00;99.90
71155;DHT22;59375;53.216;5.728;2023-04-24T15:11:02;9.90;99.90
71155;DHT22;59375;53.216;5.728;2023-04-24T15:13:27;9.90;99.90
71155;DHT22;59375;53.216;5.728;2023-04-24T15:15:53;9.90;99.90
71155;DHT22;59375;53.216;5.728;2023-04-24T15:18:18;9.80;99.90
71155;DHT22;59375;53.216;5.728;2023-04-24T15:20:43;9.90;99.90
71155;DHT22;59375;53.216;5.728;2023-04-24T15:23:09;9.90;99.90
71155;DHT22;59375;53.216;5.728;2023-04-24T15:25:35;9.90;99.90
71155;DHT22;59375;53.216;5.728;2023-04-24T15:28:00;9.70;99.90
71155;DHT22;59375;53.216;5.728;2023-04-24T15:30:26;9.70;99.90
71155;DHT22;59375;53.216;5.728;2023-04-24T15:32:52;9.70;99.90
71155;DHT22;59375;53.216;5.728;2023-04-24T15:35:17;9.60;99.90
71155;DHT22;59375;53.216;5.728;2023-04-24T15:37:43;9.60;99.90
71155;DHT22;59375;53.216;5.728;2023-04-24T15:40:08;9.60;99.90
71155;DHT22;59375;53.216;5.728;2023-04-24T15:42:36;9.60;99.90
71155;DHT22;59375;53.216;5.728;2023-04-24T15:45:02;9.50;99.90
71155;DHT22;59375;53.216;5.728;2023-04-24T15:47:28;9.40;99.90
71155;DHT22;59375;53.216;5.728;2023-04-24T15:49:54;9.40;99.90